Terminal Aerodrome Forecast
Issued by NWS

Home | Current Version | Previous Version | Text Only | Print | Product List | Glossary On
Versions: 1 2 3 4 5 6 7 8 9 10 11 12 13 14 15 16 17 18 19
000
FTUS43 KMPX 150520
TAFRNH
TAF
KRNH 150520Z 1506/1606 29011KT 6SM -SHSN SCT020 OVC030
     FM151000 29005KT P6SM BKN020
     FM151700 23004KT 6SM -SHSN OVC025
     FM152100 22004KT 6SM -SHSN OVC025
     FM160000 17004KT 6SM -SHSN OVC020=

USA.gov is the U.S. government's official web portal to all federal, state and local government web resources and services.